메인 페이지
METAR-TAF:

METAR-TAF

공항 :

샌프란시스코 국제공항

샌프란시스코, 캘리포니아, 미국

위도: 37-37-11N, 경도: 122-21-53W, 고도: 3m

현재 날씨관측

예보는 27분 전, 05:56시(UTC)에 발표되었습니다.
서남서9kt
온도 12°C
습도 88%
기압 1013 hPa
시정: 16.1km
고도 400ft 상공 구름 조금
고도 1000ft 상공 흐림

METAR: KSFO 200556Z 24009KT 10SM FEW004 OVC010 12/10 A2992 RMK AO2 SLP132 T01220100 10156 20122 50005

시각: 23:23 (06:23 UTC)

예보

예보는 1 시간 3분 전, 05:20시(UTC)에 발표되었습니다.
예보 대상 시간: 20일 06시부터 21일 12시까지 (UTC)
10kt
시정: 10km
고도 800ft 상공 구름 많음
20일 1700시부터 (UTC)
14kt, 순간 최대 풍속 24kt
시정: 10km
맑음
21일 0200시부터 (UTC)
15kt, 순간 최대 풍속 26kt
시정: 10km
고도 800ft 상공 구름 많음
21일 0500시부터 (UTC)
7kt
시정: 10km
고도 800ft 상공 구름 많음

TAF: KSFO 200520Z 2006/2112 27010KT P6SM BKN008 FM201700 28014G24KT P6SM SKC FM210200 28015G26KT P6SM BKN008 FM210500 27007KT P6SM BKN008

4,000개 이상의 공항 관측 자료 및 예보 (METAR 및 TAF 보고).

지도상에서 검색 가능한 기상관측소가 노란 점과 빨간 점으로 표시되어 있습니다.

기상관측소 명을 보려면 표시 위로 마우스를 이동하세요.

날씨 관측과 예보를 보려면 클릭하세요.

지도 변경 : 확대하려면 엑스 표시가 있는 녹색 버튼, 축소하려면 빼기 표시가 있는 녹색 버튼, 다음 페이지의 지도를 보려면 녹색 화살표를 클릭하세요.


METAR-TAF: